Time;durP1;ratioP1;P1;durP2;ratioP2;P2;SDS_P1;SDS_P2;PMS_P1;PMS_P2;Temp;Humidity;BMP_temperature;BMP_pressure;BME280_temperature;BME280_humidity;BME280_pressure;Samples;Min_cycle;Max_cycle;Signal;HPM_P1;HPM_P2
2023/06/15 00:02:13;;;;;;;;;;;14.00;85.80;;;;;;5034765;28;19986;-72
2023/06/15 00:04:41;;;;;;;;;;;13.90;85.80;;;;;;5033153;28;20373;-72
2023/06/15 00:07:07;;;;;;;;;;;13.90;86.00;;;;;;5034483;28;19917;-72
2023/06/15 00:09:33;;;;;;;;;;;13.80;86.60;;;;;;5033330;28;19909;-72
2023/06/15 00:11:58;;;;;;;;;;;13.80;87.00;;;;;;5016711;28;19914;-72
2023/06/15 00:14:24;;;;;;;;;;;13.80;87.30;;;;;;5034314;28;20337;-72
2023/06/15 00:16:52;;;;;;;;;;;13.70;87.50;;;;;;5033734;28;19916;-72
2023/06/15 00:19:21;;;;;;;;;;;13.70;87.90;;;;;;5033112;28;20030;-72
2023/06/15 00:21:48;;;;;;;;;;;13.60;87.90;;;;;;5034249;28;19916;-72
2023/06/15 00:24:16;;;;;;;;;;;13.60;88.00;;;;;;5034132;28;19913;-72
2023/06/15 00:26:43;;;;;;;;;;;13.50;88.50;;;;;;5033639;28;19920;-72
2023/06/15 00:29:09;;;;;;;;;;;13.40;89.30;;;;;;5034085;28;19905;-72
2023/06/15 00:31:35;;;;;;;;;;;13.20;90.00;;;;;;5034361;28;19912;-72
2023/06/15 00:34:01;;;;;;;;;;;13.10;90.20;;;;;;5032600;28;19912;-72
2023/06/15 00:36:26;;;;;;;;;;;13.00;90.60;;;;;;5033933;28;19912;-72
2023/06/15 00:38:52;;;;;;;;;;;13.00;90.70;;;;;;5034176;28;19905;-72
2023/06/15 00:41:17;;;;;;;;;;;12.90;90.70;;;;;;5034407;28;19971;-72
2023/06/15 00:43:43;;;;;;;;;;;12.90;91.00;;;;;;5033968;28;19909;-72
2023/06/15 00:46:09;;;;;;;;;;;13.00;91.30;;;;;;5033644;28;19996;-72
2023/06/15 00:48:35;;;;;;;;;;;13.00;91.50;;;;;;5034342;28;19908;-72
2023/06/15 00:51:00;;;;;;;;;;;13.00;91.60;;;;;;5034082;28;19916;-72
2023/06/15 00:53:26;;;;;;;;;;;13.00;91.80;;;;;;5034113;28;19909;-72
2023/06/15 00:55:52;;;;;;;;;;;13.00;91.90;;;;;;5033733;28;19948;-72
2023/06/15 00:58:18;;;;;;;;;;;13.00;92.10;;;;;;5033731;28;19912;-72
2023/06/15 01:00:48;;;;;;;;;;;13.00;92.60;;;;;;5033631;28;19913;-72
2023/06/15 01:03:15;;;;;;;;;;;13.00;92.50;;;;;;5033902;28;19916;-72
2023/06/15 01:05:44;;;;;;;;;;;13.00;92.70;;;;;;5032463;28;19944;-72
2023/06/15 01:08:11;;;;;;;;;;;12.90;92.70;;;;;;5033377;28;19920;-72
2023/06/15 01:10:37;;;;;;;;;;;12.90;92.70;;;;;;5025872;28;19905;-72
2023/06/15 01:13:03;;;;;;;;;;;12.90;92.90;;;;;;5035246;28;20328;-72
2023/06/15 01:15:29;;;;;;;;;;;12.80;93.10;;;;;;5039050;28;19905;-72
2023/06/15 01:17:57;;;;;;;;;;;12.80;93.20;;;;;;5039891;28;19909;-72
2023/06/15 01:20:25;;;;;;;;;;;12.80;93.30;;;;;;5039862;28;19971;-72
2023/06/15 01:23:01;;;;;;;;;;;12.80;93.40;;;;;;5039956;28;19944;-72
2023/06/15 01:25:29;;;;;;;;;;;12.70;93.50;;;;;;5039892;28;19962;-72
2023/06/15 01:27:59;;;;;;;;;;;12.70;93.80;;;;;;5039160;28;19931;-73
2023/06/15 01:30:27;;;;;;;;;;;12.60;94.20;;;;;;5039651;28;19909;-73
2023/06/15 01:32:53;;;;;;;;;;;12.60;94.10;;;;;;5039921;28;19909;-72
2023/06/15 01:35:19;;;;;;;;;;;12.50;94.30;;;;;;5038465;28;19991;-72
2023/06/15 01:37:45;;;;;;;;;;;12.50;94.50;;;;;;5039870;28;20349;-72
2023/06/15 01:40:11;;;;;;;;;;;12.30;94.90;;;;;;5039232;28;20381;-72
2023/06/15 01:42:36;;;;;;;;;;;12.20;95.30;;;;;;5039193;28;19949;-72
2023/06/15 01:45:02;;;;;;;;;;;12.10;95.90;;;;;;5039832;28;19944;-72
2023/06/15 01:47:28;;;;;;;;;;;12.00;96.40;;;;;;5040028;28;20311;-72
2023/06/15 01:49:54;;;;;;;;;;;11.90;96.60;;;;;;5038650;28;19909;-72
2023/06/15 01:52:20;;;;;;;;;;;11.90;96.80;;;;;;5040160;28;19935;-72
2023/06/15 01:54:47;;;;;;;;;;;11.90;97.00;;;;;;5039693;28;20000;-72
2023/06/15 01:57:12;;;;;;;;;;;12.00;97.20;;;;;;5039716;28;19917;-72
2023/06/15 01:59:38;;;;;;;;;;;12.00;97.40;;;;;;5039708;28;19913;-72
2023/06/15 02:02:03;;;;;;;;;;;12.00;97.30;;;;;;5039856;28;19909;-72
2023/06/15 02:04:29;;;;;;;;;;;12.00;97.60;;;;;;5039592;28;19909;-72
2023/06/15 02:06:57;;;;;;;;;;;12.10;97.80;;;;;;5039560;28;20059;-72
2023/06/15 02:09:22;;;;;;;;;;;12.00;97.90;;;;;;5038315;28;20361;-72
2023/06/15 02:11:48;;;;;;;;;;;12.00;98.10;;;;;;5039591;28;19912;-72
2023/06/15 02:14:17;;;;;;;;;;;12.00;98.40;;;;;;5039511;28;19995;-72
2023/06/15 02:16:43;;;;;;;;;;;12.00;98.50;;;;;;5040050;28;19964;-72
2023/06/15 02:19:08;;;;;;;;;;;12.00;98.50;;;;;;5039649;28;20407;-74
2023/06/15 02:21:34;;;;;;;;;;;11.90;98.80;;;;;;5039547;28;19909;-73
2023/06/15 02:23:59;;;;;;;;;;;11.80;98.90;;;;;;5038954;28;19917;-73
2023/06/15 02:26:25;;;;;;;;;;;11.70;99.40;;;;;;5034252;28;19956;-73
2023/06/15 02:28:51;;;;;;;;;;;11.60;99.80;;;;;;5035129;28;19955;-73
2023/06/15 02:31:16;;;;;;;;;;;11.60;99.90;;;;;;5036403;28;19909;-73
2023/06/15 02:33:42;;;;;;;;;;;11.50;99.90;;;;;;5036209;28;19909;-73
2023/06/15 02:36:08;;;;;;;;;;;11.50;99.90;;;;;;5036192;28;20024;-73
2023/06/15 02:38:33;;;;;;;;;;;11.50;99.90;;;;;;5036455;28;20285;-73
2023/06/15 02:40:59;;;;;;;;;;;11.50;99.90;;;;;;5036133;28;20439;-73
2023/06/15 02:43:24;;;;;;;;;;;11.60;99.90;;;;;;5036059;28;20345;-73
2023/06/15 02:45:50;;;;;;;;;;;11.50;99.90;;;;;;5036042;28;20343;-73
2023/06/15 02:48:16;;;;;;;;;;;11.50;99.90;;;;;;5034780;28;20288;-73
2023/06/15 02:50:41;;;;;;;;;;;11.60;99.90;;;;;;5035914;28;19929;-73
2023/06/15 02:53:07;;;;;;;;;;;11.60;99.90;;;;;;5035910;28;19909;-73
2023/06/15 02:55:33;;;;;;;;;;;11.60;99.90;;;;;;5036058;28;19916;-73
2023/06/15 02:57:58;;;;;;;;;;;11.50;99.90;;;;;;5035799;28;19913;-73
2023/06/15 03:00:25;;;;;;;;;;;11.60;99.90;;;;;;5035917;28;19923;-73
2023/06/15 03:02:52;;;;;;;;;;;11.50;99.90;;;;;;5035765;28;19992;-73
2023/06/15 03:05:18;;;;;;;;;;;11.50;99.90;;;;;;5035643;28;20008;-73
2023/06/15 03:07:43;;;;;;;;;;;11.50;99.90;;;;;;5035570;28;19960;-73
2023/06/15 03:10:09;;;;;;;;;;;11.50;99.90;;;;;;5035536;28;19979;-73
2023/06/15 03:12:35;;;;;;;;;;;11.50;99.90;;;;;;5035601;28;19916;-73
2023/06/15 03:15:02;;;;;;;;;;;11.40;99.90;;;;;;5035545;28;19962;-73
2023/06/15 03:17:29;;;;;;;;;;;11.40;99.90;;;;;;5035398;28;20261;-73
2023/06/15 03:19:54;;;;;;;;;;;11.40;99.90;;;;;;5035440;28;19917;-73
2023/06/15 03:22:20;;;;;;;;;;;11.40;99.90;;;;;;5035478;28;19909;-73
2023/06/15 03:24:49;;;;;;;;;;;11.40;99.90;;;;;;5035256;28;19996;-73
2023/06/15 03:27:16;;;;;;;;;;;11.30;99.90;;;;;;5035280;28;19936;-73
2023/06/15 03:29:49;;;;;;;;;;;11.30;99.90;;;;;;5035080;28;20419;-72
2023/06/15 03:32:15;;;;;;;;;;;11.30;99.90;;;;;;5034436;28;19916;-73
2023/06/15 03:34:40;;;;;;;;;;;11.30;99.90;;;;;;5035012;28;20327;-73
2023/06/15 03:37:06;;;;;;;;;;;11.30;99.90;;;;;;5033504;28;19905;-73
2023/06/15 03:39:32;;;;;;;;;;;11.30;99.90;;;;;;5034913;28;20257;-73
2023/06/15 03:41:58;;;;;;;;;;;11.30;99.90;;;;;;5034880;28;19909;-72
2023/06/15 03:44:23;;;;;;;;;;;11.30;99.90;;;;;;5034855;28;20008;-72
2023/06/15 03:46:49;;;;;;;;;;;11.30;99.90;;;;;;5034802;28;19908;-72
2023/06/15 03:49:14;;;;;;;;;;;11.30;99.90;;;;;;5035128;28;19959;-73
2023/06/15 03:51:40;;;;;;;;;;;11.30;99.90;;;;;;5035087;28;19905;-72
2023/06/15 03:54:06;;;;;;;;;;;11.30;99.90;;;;;;5033883;28;19911;-73
2023/06/15 03:56:31;;;;;;;;;;;11.30;99.90;;;;;;5033696;28;19909;-72
2023/06/15 03:58:57;;;;;;;;;;;11.20;99.90;;;;;;5033344;28;19905;-73
2023/06/15 04:01:24;;;;;;;;;;;11.10;99.90;;;;;;5033574;28;20050;-72
2023/06/15 04:03:50;;;;;;;;;;;11.10;99.90;;;;;;5034389;28;19905;-73
2023/06/15 04:06:16;;;;;;;;;;;11.10;99.90;;;;;;5033762;28;20289;-72
2023/06/15 04:08:42;;;;;;;;;;;11.10;99.90;;;;;;5032995;28;19912;-73
2023/06/15 04:11:07;;;;;;;;;;;11.10;99.90;;;;;;5033997;28;19996;-73
2023/06/15 04:13:33;;;;;;;;;;;11.10;99.90;;;;;;5032943;28;20437;-72
2023/06/15 04:15:58;;;;;;;;;;;11.10;99.90;;;;;;5034222;28;19909;-73
2023/06/15 04:18:24;;;;;;;;;;;11.10;99.90;;;;;;5033001;28;19917;-72
2023/06/15 04:20:50;;;;;;;;;;;11.20;99.90;;;;;;5033764;28;19917;-72
2023/06/15 04:23:15;;;;;;;;;;;11.20;99.90;;;;;;5033285;28;19909;-72
2023/06/15 04:25:41;;;;;;;;;;;11.10;99.90;;;;;;5033346;28;19905;-72
2023/06/15 04:28:10;;;;;;;;;;;11.10;99.90;;;;;;5032478;28;19913;-73
2023/06/15 04:30:44;;;;;;;;;;;11.10;99.90;;;;;;5033058;28;19905;-72
2023/06/15 04:33:13;;;;;;;;;;;11.10;99.90;;;;;;5031598;28;19905;-72
2023/06/15 04:35:45;;;;;;;;;;;11.10;99.90;;;;;;5029885;28;19944;-73
2023/06/15 04:38:12;;;;;;;;;;;11.10;99.90;;;;;;5033669;28;19918;-73
2023/06/15 04:40:38;;;;;;;;;;;11.20;99.90;;;;;;5031812;28;19916;-72
2023/06/15 04:43:04;;;;;;;;;;;11.20;99.90;;;;;;5032244;28;19936;-73
2023/06/15 04:45:29;;;;;;;;;;;11.20;99.90;;;;;;5034042;28;20369;-72
2023/06/15 04:47:55;;;;;;;;;;;11.30;99.90;;;;;;5033053;28;19912;-72
2023/06/15 04:50:21;;;;;;;;;;;11.30;99.90;;;;;;5032438;28;19905;-72
2023/06/15 04:52:50;;;;;;;;;;;11.40;99.90;;;;;;5033282;28;19913;-73
2023/06/15 04:55:16;;;;;;;;;;;11.50;99.90;;;;;;5031031;28;20384;-73
2023/06/15 04:57:41;;;;;;;;;;;11.50;99.90;;;;;;5031065;28;19944;-73
2023/06/15 05:00:08;;;;;;;;;;;11.50;99.90;;;;;;5030621;28;19936;-72
2023/06/15 05:02:33;;;;;;;;;;;11.50;99.90;;;;;;5031574;28;19913;-73
2023/06/15 05:04:59;;;;;;;;;;;11.60;99.90;;;;;;5029282;28;20484;-72
2023/06/15 05:07:24;;;;;;;;;;;11.60;99.90;;;;;;5030774;28;19913;-73
2023/06/15 05:09:50;;;;;;;;;;;11.60;99.90;;;;;;5031700;28;19909;-73
2023/06/15 05:12:16;;;;;;;;;;;11.60;99.90;;;;;;5033203;28;19999;-73
2023/06/15 05:14:41;;;;;;;;;;;11.70;99.90;;;;;;5032640;28;19912;-72
2023/06/15 05:17:07;;;;;;;;;;;11.70;99.90;;;;;;5032148;28;20111;-73
2023/06/15 05:19:32;;;;;;;;;;;11.70;99.90;;;;;;5032544;28;19956;-72
2023/06/15 05:22:00;;;;;;;;;;;11.70;99.90;;;;;;5033128;28;19956;-72
2023/06/15 05:24:25;;;;;;;;;;;11.80;99.90;;;;;;5033174;28;20311;-72
2023/06/15 05:26:51;;;;;;;;;;;11.80;99.90;;;;;;5032337;28;20397;-72
2023/06/15 05:29:16;;;;;;;;;;;11.80;99.90;;;;;;5033273;28;19909;-73
2023/06/15 05:31:42;;;;;;;;;;;11.90;99.90;;;;;;5033281;28;19944;-73
2023/06/15 05:34:07;;;;;;;;;;;11.90;99.90;;;;;;5032441;28;19967;-72
2023/06/15 05:36:34;;;;;;;;;;;12.00;99.90;;;;;;5033196;28;19936;-73
2023/06/15 05:39:00;;;;;;;;;;;12.10;99.90;;;;;;5031963;28;19948;-73
2023/06/15 05:41:25;;;;;;;;;;;12.10;99.90;;;;;;5033037;28;19932;-73
2023/06/15 05:43:51;;;;;;;;;;;12.10;99.90;;;;;;5032143;28;19913;-72
2023/06/15 05:46:16;;;;;;;;;;;12.20;99.90;;;;;;5032985;28;20258;-73
2023/06/15 05:48:42;;;;;;;;;;;12.30;99.90;;;;;;5032417;28;19912;-72
2023/06/15 05:51:07;;;;;;;;;;;12.30;99.90;;;;;;5032823;28;20377;-72
2023/06/15 05:53:33;;;;;;;;;;;12.40;99.90;;;;;;5031802;28;20364;-73
2023/06/15 05:55:58;;;;;;;;;;;12.40;99.90;;;;;;5032291;28;19963;-73
2023/06/15 05:58:24;;;;;;;;;;;12.50;99.90;;;;;;5032554;28;20317;-73
2023/06/15 06:00:49;;;;;;;;;;;12.50;99.90;;;;;;5035969;28;19915;-73
2023/06/15 06:03:15;;;;;;;;;;;12.60;99.90;;;;;;5035785;28;19913;-72
2023/06/15 06:05:40;;;;;;;;;;;12.70;99.90;;;;;;5019059;28;19913;-73
2023/06/15 06:08:06;;;;;;;;;;;12.70;99.90;;;;;;5035600;28;19913;-73
2023/06/15 06:10:31;;;;;;;;;;;12.80;99.90;;;;;;5035472;28;20254;-73
2023/06/15 06:12:58;;;;;;;;;;;12.90;99.90;;;;;;5035613;28;19909;-73
2023/06/15 06:15:23;;;;;;;;;;;12.90;99.90;;;;;;5036525;28;19909;-73
2023/06/15 06:17:49;;;;;;;;;;;13.10;99.90;;;;;;5036593;28;19996;-74
2023/06/15 06:20:14;;;;;;;;;;;13.10;99.90;;;;;;5036587;28;19949;-73
2023/06/15 06:22:41;;;;;;;;;;;13.20;99.90;;;;;;5036550;28;20000;-73
2023/06/15 06:25:07;;;;;;;;;;;13.30;99.90;;;;;;5036592;28;19910;-73
2023/06/15 06:27:32;;;;;;;;;;;13.40;99.90;;;;;;5036383;28;19909;-74
2023/06/15 06:29:59;;;;;;;;;;;13.50;99.90;;;;;;5036414;28;20292;-74
2023/06/15 06:32:24;;;;;;;;;;;13.60;99.90;;;;;;5036251;28;19931;-73
2023/06/15 06:34:50;;;;;;;;;;;13.70;99.90;;;;;;5036315;28;20306;-74
2023/06/15 06:37:16;;;;;;;;;;;13.80;99.90;;;;;;5036381;28;20000;-73
2023/06/15 06:39:41;;;;;;;;;;;13.80;99.90;;;;;;5036571;28;20004;-73
2023/06/15 06:42:07;;;;;;;;;;;13.90;99.90;;;;;;5036136;28;20316;-73
2023/06/15 06:44:32;;;;;;;;;;;14.00;99.90;;;;;;5036084;28;19952;-73
2023/06/15 06:46:59;;;;;;;;;;;14.00;99.90;;;;;;5036017;28;19917;-74
2023/06/15 06:49:25;;;;;;;;;;;14.10;99.90;;;;;;5036039;28;19932;-74
2023/06/15 06:51:50;;;;;;;;;;;14.20;99.90;;;;;;5036042;28;20365;-74
2023/06/15 06:54:16;;;;;;;;;;;14.40;99.90;;;;;;5035897;28;19909;-74
2023/06/15 06:56:41;;;;;;;;;;;14.50;99.90;;;;;;5035934;28;19975;-74
2023/06/15 06:59:07;;;;;;;;;;;14.50;99.90;;;;;;5036145;28;20390;-74
2023/06/15 07:01:32;;;;;;;;;;;14.60;99.90;;;;;;5034694;28;20289;-74
2023/06/15 07:03:58;;;;;;;;;;;14.60;99.90;;;;;;5034392;28;19913;-74
2023/06/15 07:06:23;;;;;;;;;;;14.80;99.90;;;;;;5035673;28;19915;-74
2023/06/15 07:08:49;;;;;;;;;;;14.90;99.90;;;;;;5035889;28;19916;-74
2023/06/15 07:11:15;;;;;;;;;;;15.00;99.90;;;;;;5034994;28;19951;-74
2023/06/15 07:13:41;;;;;;;;;;;15.10;99.90;;;;;;5035547;28;20328;-74
2023/06/15 07:16:06;;;;;;;;;;;15.30;99.70;;;;;;5034349;28;20377;-74
2023/06/15 07:18:32;;;;;;;;;;;15.40;99.90;;;;;;5035502;28;20357;-74
2023/06/15 07:20:57;;;;;;;;;;;15.60;99.00;;;;;;5035549;28;19905;-74
2023/06/15 07:23:23;;;;;;;;;;;15.70;98.10;;;;;;5035297;28;19909;-74
2023/06/15 07:25:50;;;;;;;;;;;15.90;98.60;;;;;;5035656;28;20373;-74
2023/06/15 07:28:15;;;;;;;;;;;16.00;99.10;;;;;;5039986;28;19913;-74
2023/06/15 07:30:41;;;;;;;;;;;16.20;98.40;;;;;;5053189;28;19982;-74
2023/06/15 07:33:06;;;;;;;;;;;16.30;97.70;;;;;;5055148;28;19909;-74
2023/06/15 07:35:32;;;;;;;;;;;16.40;98.00;;;;;;5054152;28;19916;-73
2023/06/15 07:37:57;;;;;;;;;;;16.50;97.70;;;;;;5055424;28;19962;-74
2023/06/15 07:40:23;;;;;;;;;;;16.60;97.40;;;;;;5055254;28;19917;-74
2023/06/15 07:42:48;;;;;;;;;;;16.70;96.80;;;;;;5054609;28;19975;-74
2023/06/15 07:45:14;;;;;;;;;;;16.80;96.80;;;;;;5054955;28;19916;-74
2023/06/15 07:47:41;;;;;;;;;;;17.00;96.00;;;;;;5054687;28;19919;-74
2023/06/15 07:50:07;;;;;;;;;;;17.00;95.80;;;;;;5053971;28;19904;-73
2023/06/15 07:52:32;;;;;;;;;;;17.10;95.90;;;;;;5054792;28;19959;-74
2023/06/15 07:54:58;;;;;;;;;;;17.30;95.70;;;;;;5054748;28;19936;-74
2023/06/15 07:57:23;;;;;;;;;;;17.40;95.60;;;;;;5054889;28;19924;-74
2023/06/15 07:59:49;;;;;;;;;;;17.60;95.90;;;;;;5054623;28;19959;-74
2023/06/15 08:02:14;;;;;;;;;;;17.80;95.50;;;;;;5055199;28;19939;-74
2023/06/15 08:04:40;;;;;;;;;;;18.00;95.10;;;;;;5054474;28;19908;-74
2023/06/15 08:07:06;;;;;;;;;;;18.20;93.80;;;;;;5054643;28;19916;-74
2023/06/15 08:09:32;;;;;;;;;;;18.40;93.10;;;;;;5053434;28;20258;-74
2023/06/15 08:11:57;;;;;;;;;;;18.60;92.10;;;;;;5054411;28;19909;-74
2023/06/15 08:14:23;;;;;;;;;;;18.80;92.00;;;;;;5052958;28;19908;-74
2023/06/15 08:16:48;;;;;;;;;;;18.80;91.50;;;;;;5054327;28;19912;-74
2023/06/15 08:19:14;;;;;;;;;;;18.70;91.20;;;;;;5054393;28;20429;-74
2023/06/15 08:21:41;;;;;;;;;;;18.60;90.20;;;;;;5054236;28;19908;-75
2023/06/15 08:24:07;;;;;;;;;;;18.60;90.70;;;;;;5051853;28;19912;-74
2023/06/15 08:26:33;;;;;;;;;;;18.60;90.40;;;;;;5054614;28;19909;-74
2023/06/15 08:28:58;;;;;;;;;;;18.60;90.80;;;;;;5054122;28;19909;-75
2023/06/15 08:31:24;;;;;;;;;;;18.70;90.40;;;;;;5054067;28;19912;-74
2023/06/15 08:33:49;;;;;;;;;;;18.70;90.20;;;;;;5054473;28;19958;-74
2023/06/15 08:36:15;;;;;;;;;;;18.80;88.00;;;;;;5053998;28;19999;-73
2023/06/15 08:38:41;;;;;;;;;;;18.80;87.40;;;;;;5053928;28;19909;-73
2023/06/15 08:41:07;;;;;;;;;;;19.00;90.20;;;;;;5052584;28;19904;-73
2023/06/15 08:43:33;;;;;;;;;;;19.00;89.50;;;;;;5053809;28;19911;-73
2023/06/15 08:45:59;;;;;;;;;;;19.00;89.70;;;;;;5052571;28;20388;-74
2023/06/15 08:48:26;;;;;;;;;;;19.30;88.40;;;;;;5053707;28;19913;-74
2023/06/15 08:50:52;;;;;;;;;;;19.50;87.30;;;;;;5054060;28;20266;-73
2023/06/15 08:53:18;;;;;;;;;;;19.70;85.90;;;;;;5052515;28;19908;-73
2023/06/15 08:55:44;;;;;;;;;;;19.80;86.40;;;;;;5054135;28;19908;-73
2023/06/15 08:58:10;;;;;;;;;;;19.90;84.40;;;;;;5053725;28;20356;-73
2023/06/15 09:00:36;;;;;;;;;;;20.10;86.80;;;;;;5053617;28;19916;-73
2023/06/15 09:03:03;;;;;;;;;;;20.10;85.30;;;;;;5053592;28;19915;-73
2023/06/15 09:05:28;;;;;;;;;;;20.10;83.00;;;;;;5053333;28;20438;-74
2023/06/15 09:07:54;;;;;;;;;;;20.10;84.50;;;;;;5053417;28;19909;-73
2023/06/15 09:10:20;;;;;;;;;;;20.10;83.60;;;;;;5052310;28;20280;-73
2023/06/15 09:12:47;;;;;;;;;;;20.10;81.40;;;;;;5053461;28;19966;-73
2023/06/15 09:15:17;;;;;;;;;;;20.10;76.60;;;;;;5052326;28;20315;-73
2023/06/15 09:17:43;;;;;;;;;;;20.00;76.90;;;;;;5053349;28;19905;-73
2023/06/15 09:20:08;;;;;;;;;;;20.10;78.50;;;;;;5053257;28;19920;-73
2023/06/15 09:22:41;;;;;;;;;;;20.20;76.60;;;;;;5053353;28;20000;-73
2023/06/15 09:25:13;;;;;;;;;;;20.20;73.40;;;;;;5053347;28;19921;-73
2023/06/15 09:27:39;;;;;;;;;;;20.20;75.10;;;;;;5052366;28;19916;-74
2023/06/15 09:30:06;;;;;;;;;;;20.20;74.50;;;;;;5053357;28;19909;-73
2023/06/15 09:32:31;;;;;;;;;;;20.20;73.80;;;;;;5053345;28;19908;-73
2023/06/15 09:34:58;;;;;;;;;;;20.30;72.50;;;;;;5055385;28;20280;-73
2023/06/15 09:37:29;;;;;;;;;;;20.70;67.40;;;;;;5056468;28;19908;-73
2023/06/15 09:39:55;;;;;;;;;;;21.00;71.10;;;;;;5057284;28;19958;-72
2023/06/15 09:42:25;;;;;;;;;;;21.40;69.90;;;;;;5057524;28;20345;-72
2023/06/15 09:44:57;;;;;;;;;;;21.50;69.60;;;;;;5057237;28;19905;-73
2023/06/15 09:47:27;;;;;;;;;;;21.40;70.10;;;;;;5057318;28;19908;-73
2023/06/15 09:49:53;;;;;;;;;;;21.40;69.50;;;;;;5057659;28;20299;-73
2023/06/15 09:52:18;;;;;;;;;;;21.30;68.20;;;;;;5055742;28;20008;-73
2023/06/15 09:54:44;;;;;;;;;;;21.40;67.00;;;;;;5056944;28;20353;-73
2023/06/15 09:57:10;;;;;;;;;;;21.40;67.80;;;;;;5057554;28;19908;-72
2023/06/15 09:59:36;;;;;;;;;;;21.40;65.60;;;;;;5057036;28;19966;-72
2023/06/15 10:02:04;;;;;;;;;;;21.20;67.20;;;;;;5057180;28;20395;-72
2023/06/15 10:04:31;;;;;;;;;;;21.20;65.70;;;;;;5057534;28;20352;-72
2023/06/15 10:07:04;;;;;;;;;;;21.10;65.20;;;;;;5057484;28;20268;-72
2023/06/15 10:09:37;;;;;;;;;;;21.10;65.50;;;;;;5056908;28;19912;-71
2023/06/15 10:12:10;;;;;;;;;;;21.10;66.10;;;;;;5057261;28;20320;-73
2023/06/15 10:14:42;;;;;;;;;;;21.10;66.40;;;;;;5056833;28;19905;-72
2023/06/15 10:17:08;;;;;;;;;;;21.20;68.10;;;;;;5057181;28;19995;-72
2023/06/15 10:19:41;;;;;;;;;;;21.50;65.10;;;;;;5056473;28;20006;-73
2023/06/15 10:22:08;;;;;;;;;;;21.50;65.00;;;;;;5056819;28;19909;-72
2023/06/15 10:24:34;;;;;;;;;;;21.50;64.20;;;;;;5056399;28;19905;-73
2023/06/15 10:27:00;;;;;;;;;;;21.50;62.70;;;;;;5056368;28;19955;-72
2023/06/15 10:29:36;;;;;;;;;;;21.30;63.00;;;;;;5056810;28;19908;-73
2023/06/15 10:32:20;;;;;;;;;;;21.10;62.60;;;;;;5056585;28;19909;-73
2023/06/15 10:34:51;;;;;;;;;;;21.00;61.40;;;;;;5056245;28;20384;-73
2023/06/15 10:37:24;;;;;;;;;;;21.00;63.50;;;;;;5056831;28;20377;-73
2023/06/15 10:39:51;;;;;;;;;;;21.00;62.80;;;;;;5056479;28;19944;-73
2023/06/15 10:42:17;;;;;;;;;;;21.00;64.40;;;;;;5056113;28;20340;-73
2023/06/15 10:44:42;;;;;;;;;;;21.00;64.50;;;;;;5056139;28;19908;-73
2023/06/15 10:47:09;;;;;;;;;;;21.10;64.30;;;;;;5053981;28;19916;-73
2023/06/15 10:49:35;;;;;;;;;;;21.30;61.20;;;;;;5056338;28;19970;-73
2023/06/15 10:52:01;;;;;;;;;;;21.30;59.20;;;;;;5055942;28;20356;-73
2023/06/15 10:54:27;;;;;;;;;;;21.40;59.70;;;;;;5055802;28;19905;-73
2023/06/15 10:56:53;;;;;;;;;;;21.40;58.50;;;;;;5055822;28;19905;-73
2023/06/15 10:59:41;;;;;;;;;;;21.40;58.40;;;;;;5055714;28;19913;-73
2023/06/15 11:02:35;;;;;;;;;;;21.20;57.50;;;;;;5055688;28;19911;-73
2023/06/15 11:05:01;;;;;;;;;;;21.10;59.30;;;;;;5055564;28;19916;-73
2023/06/15 11:07:28;;;;;;;;;;;21.00;59.70;;;;;;5054292;28;19916;-73
2023/06/15 11:09:56;;;;;;;;;;;20.90;61.50;;;;;;5054340;28;20432;-73
2023/06/15 11:12:38;;;;;;;;;;;20.80;61.90;;;;;;5054289;28;19958;-73
2023/06/15 11:15:05;;;;;;;;;;;20.70;61.20;;;;;;5055465;28;19905;-73
2023/06/15 11:17:31;;;;;;;;;;;20.70;62.10;;;;;;5054215;28;20288;-72
2023/06/15 11:19:57;;;;;;;;;;;20.60;60.70;;;;;;5055447;28;19913;-73
2023/06/15 11:22:28;;;;;;;;;;;20.60;61.90;;;;;;5055370;28;20003;-73
2023/06/15 11:24:54;;;;;;;;;;;20.60;62.80;;;;;;5055458;28;19951;-72
2023/06/15 11:27:23;;;;;;;;;;;20.80;63.60;;;;;;5055179;28;19956;-72
2023/06/15 11:29:55;;;;;;;;;;;20.90;63.60;;;;;;5055105;28;19913;-72
2023/06/15 11:32:27;;;;;;;;;;;21.00;60.80;;;;;;5055096;28;19908;-72
2023/06/15 11:34:56;;;;;;;;;;;21.00;60.90;;;;;;5055193;28;20338;-72
2023/06/15 11:37:25;;;;;;;;;;;20.90;62.70;;;;;;5055020;28;20411;-73
2023/06/15 11:39:51;;;;;;;;;;;21.00;62.00;;;;;;5055065;28;19981;-72
2023/06/15 11:42:19;;;;;;;;;;;21.00;60.00;;;;;;5053914;28;20417;-73
2023/06/15 11:44:45;;;;;;;;;;;20.90;62.20;;;;;;5055296;28;19998;-73
2023/06/15 11:47:11;;;;;;;;;;;20.90;62.20;;;;;;5053819;28;19968;-73
2023/06/15 11:49:37;;;;;;;;;;;20.80;62.20;;;;;;5055023;28;19908;-73
2023/06/15 11:52:03;;;;;;;;;;;20.80;62.10;;;;;;5053655;28;19909;-73
2023/06/15 11:54:28;;;;;;;;;;;20.70;61.50;;;;;;5054839;28;19911;-73
2023/06/15 11:56:57;;;;;;;;;;;20.70;61.30;;;;;;5054599;28;19913;-73
2023/06/15 11:59:23;;;;;;;;;;;20.70;60.30;;;;;;5054780;28;19921;-72
2023/06/15 12:01:49;;;;;;;;;;;20.50;60.30;;;;;;5054762;28;19966;-72
2023/06/15 12:04:15;;;;;;;;;;;20.50;60.60;;;;;;5054914;28;19959;-73
2023/06/15 12:06:41;;;;;;;;;;;20.60;63.60;;;;;;5054584;28;19936;-73
2023/06/15 12:09:07;;;;;;;;;;;21.10;61.70;;;;;;5054534;28;19966;-72
2023/06/15 12:11:33;;;;;;;;;;;21.40;60.60;;;;;;5054621;28;19958;-72
2023/06/15 12:14:00;;;;;;;;;;;21.70;60.60;;;;;;5054467;28;19916;-72
2023/06/15 12:16:25;;;;;;;;;;;21.90;60.00;;;;;;5054509;28;19975;-73
2023/06/15 12:18:54;;;;;;;;;;;22.00;58.60;;;;;;5054469;28;19917;-74
2023/06/15 12:21:20;;;;;;;;;;;22.20;60.70;;;;;;5037722;28;20348;-73
2023/06/15 12:23:48;;;;;;;;;;;22.20;59.90;;;;;;5047731;28;19940;-73
2023/06/15 12:26:16;;;;;;;;;;;22.30;58.40;;;;;;5039818;28;19916;-73
2023/06/15 12:28:42;;;;;;;;;;;22.60;59.30;;;;;;5041097;28;20357;-74
2023/06/15 12:31:10;;;;;;;;;;;22.70;60.10;;;;;;5019596;28;19920;-73
2023/06/15 12:33:38;;;;;;;;;;;22.60;58.70;;;;;;5045759;28;19912;-74
2023/06/15 12:36:08;;;;;;;;;;;22.40;57.90;;;;;;5034639;28;20262;-74
2023/06/15 12:38:34;;;;;;;;;;;22.30;57.00;;;;;;5020424;28;19912;-73
2023/06/15 12:40:59;;;;;;;;;;;22.20;58.60;;;;;;5013534;28;19909;-72
2023/06/15 12:43:25;;;;;;;;;;;22.10;58.10;;;;;;5013809;28;19909;-73
2023/06/15 12:45:52;;;;;;;;;;;22.00;58.90;;;;;;5013384;28;19913;-72
2023/06/15 12:48:18;;;;;;;;;;;22.00;59.20;;;;;;5013183;28;19913;-74
2023/06/15 12:50:44;;;;;;;;;;;22.30;60.00;;;;;;5014365;28;19913;-72
2023/06/15 12:53:09;;;;;;;;;;;22.50;59.10;;;;;;5014447;28;20388;-73
2023/06/15 12:55:36;;;;;;;;;;;22.70;58.50;;;;;;5013150;28;20354;-73
2023/06/15 12:58:02;;;;;;;;;;;22.60;57.50;;;;;;5014353;28;19927;-72
2023/06/15 13:00:28;;;;;;;;;;;22.40;56.90;;;;;;5013201;28;20397;-72
2023/06/15 13:02:54;;;;;;;;;;;22.30;56.40;;;;;;5014371;28;19905;-73
2023/06/15 13:05:20;;;;;;;;;;;22.20;57.60;;;;;;5012929;28;19910;-73
2023/06/15 13:07:47;;;;;;;;;;;22.10;58.10;;;;;;5012950;28;19920;-73
2023/06/15 13:10:13;;;;;;;;;;;22.10;58.60;;;;;;5012251;28;19906;-72
2023/06/15 13:12:39;;;;;;;;;;;22.10;58.80;;;;;;5012728;28;19905;-72
2023/06/15 13:15:06;;;;;;;;;;;22.00;58.30;;;;;;5012680;28;20397;-72
2023/06/15 13:17:32;;;;;;;;;;;22.00;58.90;;;;;;5014008;28;19905;-72
2023/06/15 13:19:58;;;;;;;;;;;22.20;58.40;;;;;;5013909;28;20003;-72
2023/06/15 13:22:23;;;;;;;;;;;22.50;58.90;;;;;;5013984;28;20401;-73
2023/06/15 13:24:49;;;;;;;;;;;22.90;56.60;;;;;;5012675;28;19920;-73
2023/06/15 13:27:15;;;;;;;;;;;23.10;57.20;;;;;;5012715;28;19913;-74
2023/06/15 13:29:41;;;;;;;;;;;23.20;56.20;;;;;;4996308;28;20289;-73
2023/06/15 13:32:08;;;;;;;;;;;23.10;55.10;;;;;;5013007;28;19910;-73
2023/06/15 13:34:34;;;;;;;;;;;23.10;56.00;;;;;;5013052;28;19975;-74
2023/06/15 13:36:59;;;;;;;;;;;23.20;57.20;;;;;;5014123;28;20293;-74
2023/06/15 13:39:25;;;;;;;;;;;23.20;56.40;;;;;;5013741;28;20360;-73
2023/06/15 13:41:50;;;;;;;;;;;23.40;55.80;;;;;;5013800;28;19913;-72
2023/06/15 13:44:16;;;;;;;;;;;23.60;56.90;;;;;;5013935;28;19909;-73
2023/06/15 13:46:42;;;;;;;;;;;23.70;57.00;;;;;;5013607;28;19949;-72
2023/06/15 13:49:08;;;;;;;;;;;23.50;55.20;;;;;;5012981;28;19920;-73
2023/06/15 13:51:35;;;;;;;;;;;23.20;56.00;;;;;;5013659;28;19996;-73
2023/06/15 13:54:00;;;;;;;;;;;23.10;55.10;;;;;;5012353;28;19906;-73
2023/06/15 13:56:26;;;;;;;;;;;23.00;56.30;;;;;;5015072;28;20373;-73
2023/06/15 13:58:51;;;;;;;;;;;22.90;58.30;;;;;;5013494;28;20262;-74
2023/06/15 14:01:23;;;;;;;;;;;22.90;57.40;;;;;;5013896;28;19911;-73
2023/06/15 14:03:49;;;;;;;;;;;23.10;55.50;;;;;;5013533;28;19911;-74
2023/06/15 14:06:15;;;;;;;;;;;23.20;56.20;;;;;;5013654;28;19909;-74
2023/06/15 14:08:41;;;;;;;;;;;23.40;55.00;;;;;;5013427;28;19913;-74
2023/06/15 14:11:06;;;;;;;;;;;23.60;55.60;;;;;;5013492;28;19905;-74
2023/06/15 14:13:32;;;;;;;;;;;24.10;55.70;;;;;;5013708;28;19909;-74